createdAt,value
2023-02-28T00:00:54.719Z,103338.97
2023-02-28T00:02:57.993Z,103338.25
2023-02-28T00:04:59.803Z,103341.06
2023-02-28T00:07:01.594Z,103334.00
2023-02-28T00:09:03.949Z,103327.84
2023-02-28T00:11:07.571Z,103334.13
2023-02-28T00:13:09.187Z,103333.28
2023-02-28T00:15:12.019Z,103335.13
2023-02-28T00:17:13.858Z,103334.28
2023-02-28T00:19:16.870Z,103339.63
2023-02-28T00:21:20.012Z,103334.28
2023-02-28T00:23:21.676Z,103336.06
2023-02-28T00:25:24.913Z,103332.56
2023-02-28T00:27:26.538Z,103332.56
2023-02-28T00:29:28.105Z,103341.50
2023-02-28T00:31:30.204Z,103338.13
2023-02-28T00:33:32.046Z,103347.88
2023-02-28T00:35:35.093Z,103341.66
2023-02-28T00:37:37.088Z,103337.25
2023-02-28T00:39:39.956Z,103351.53
2023-02-28T00:41:41.628Z,103343.69
2023-02-28T00:43:43.422Z,103351.69
2023-02-28T00:45:45.356Z,103344.59
2023-02-28T00:47:47.213Z,103349.97
2023-02-28T00:49:49.133Z,103350.91
2023-02-28T00:51:52.623Z,103345.63
2023-02-28T00:53:54.236Z,103343.09
2023-02-28T00:55:56.076Z,103354.59
2023-02-28T00:57:57.863Z,103360.88
2023-02-28T00:59:59.484Z,103356.47
2023-02-28T01:02:01.147Z,103353.00
2023-02-28T01:04:02.741Z,103354.88
2023-02-28T01:06:05.060Z,103362.09
2023-02-28T01:08:08.570Z,103364.91
2023-02-28T01:10:12.551Z,103358.84
2023-02-28T01:12:14.122Z,103367.72
2023-02-28T01:14:17.907Z,103367.00
2023-02-28T01:16:19.484Z,103359.13
2023-02-28T01:18:23.253Z,103361.94
2023-02-28T01:20:25.303Z,103367.34
2023-02-28T01:22:26.942Z,103361.13
2023-02-28T01:24:30.004Z,103361.28
2023-02-28T01:26:31.945Z,103358.75
2023-02-28T01:28:34.015Z,103356.22
2023-02-28T01:30:35.969Z,103353.75
2023-02-28T01:32:37.986Z,103355.72
2023-02-28T01:34:39.649Z,103345.94
2023-02-28T01:36:41.537Z,103352.22
2023-02-28T01:38:45.732Z,103355.75
2023-02-28T01:40:49.350Z,103356.72
2023-02-28T01:42:51.075Z,103355.91
2023-02-28T01:45:00.067Z,103352.38
2023-02-28T01:47:01.618Z,103355.13
2023-02-28T01:49:09.243Z,103354.25
2023-02-28T01:51:16.118Z,103354.25
2023-02-28T01:53:23.322Z,103348.03
2023-02-28T01:55:26.962Z,103350.72
2023-02-28T01:57:35.354Z,103347.16
2023-02-28T01:59:42.246Z,103353.44
2023-02-28T02:01:44.022Z,103349.06
2023-02-28T02:03:45.959Z,103351.72
2023-02-28T02:05:48.042Z,103349.97
2023-02-28T02:07:53.372Z,103357.19
2023-02-28T02:10:02.428Z,103351.84
2023-02-28T02:12:16.986Z,103353.66
2023-02-28T02:14:44.919Z,103359.94
2023-02-28T02:17:01.304Z,103357.41
2023-02-28T02:19:17.002Z,103353.91
2023-02-28T02:21:45.704Z,103340.72
2023-02-28T02:24:04.639Z,103355.00
2023-02-28T02:26:29.656Z,103354.19
2023-02-28T02:28:59.204Z,103354.19
2023-02-28T02:31:28.957Z,103351.59
2023-02-28T02:34:00.795Z,103349.88
2023-02-28T02:36:07.957Z,103358.88
2023-02-28T02:38:18.504Z,103362.53
2023-02-28T02:40:23.357Z,103360.88
2023-02-28T02:42:29.931Z,103363.63
2023-02-28T02:44:38.366Z,103362.75
2023-02-28T02:46:44.220Z,103359.28
2023-02-28T02:48:48.063Z,103362.88
2023-02-28T02:50:55.304Z,103358.47
2023-02-28T02:53:01.013Z,103357.59
2023-02-28T02:55:04.824Z,103363.91
2023-02-28T02:57:09.355Z,103363.94
2023-02-28T02:59:14.658Z,103365.81
2023-02-28T03:01:22.584Z,103356.13
2023-02-28T03:03:24.947Z,103362.44
2023-02-28T03:05:30.001Z,103358.88
2023-02-28T03:07:33.110Z,103354.47
2023-02-28T03:09:35.835Z,103357.13
2023-02-28T03:11:38.788Z,103353.66
2023-02-28T03:14:07.533Z,103353.75
2023-02-28T03:16:24.642Z,103351.22
2023-02-28T03:18:33.028Z,103355.72
2023-02-28T03:20:46.333Z,103353.19
2023-02-28T03:23:02.504Z,103361.25
2023-02-28T03:25:10.139Z,103355.19
2023-02-28T03:27:18.236Z,103357.09
2023-02-28T03:29:29.470Z,103360.72
2023-02-28T03:31:37.544Z,103357.19
2023-02-28T03:33:45.875Z,103357.19
2023-02-28T03:35:53.495Z,103354.53
2023-02-28T03:38:09.710Z,103346.53
2023-02-28T03:40:15.321Z,103355.41
2023-02-28T03:42:21.292Z,103348.31
2023-02-28T03:44:29.137Z,103343.03
2023-02-28T03:46:37.326Z,103351.91
2023-02-28T03:48:45.095Z,103346.56
2023-02-28T03:50:50.464Z,103345.78
2023-02-28T03:52:59.700Z,103345.84
2023-02-28T03:55:05.015Z,103350.25
2023-02-28T03:57:14.951Z,103352.97
2023-02-28T03:59:24.608Z,103349.44
2023-02-28T04:01:32.409Z,103355.72
2023-02-28T04:03:34.615Z,103354.91
2023-02-28T04:05:49.604Z,103361.97
2023-02-28T04:07:51.747Z,103358.53
2023-02-28T04:09:54.724Z,103355.91
2023-02-28T04:11:56.381Z,103355.91
2023-02-28T04:13:58.035Z,103355.13
2023-02-28T04:16:00.058Z,103360.44
2023-02-28T04:18:01.710Z,103366.63
2023-02-28T04:20:03.528Z,103354.25
2023-02-28T04:22:05.070Z,103356.97
2023-02-28T04:24:07.097Z,103353.41
2023-02-28T04:26:10.087Z,103359.66
2023-02-28T04:28:11.703Z,103357.97
2023-02-28T04:30:13.781Z,103358.88
2023-02-28T04:32:15.726Z,103352.69
2023-02-28T04:34:17.663Z,103360.69
2023-02-28T04:36:19.720Z,103351.81
2023-02-28T04:38:21.377Z,103350.09
2023-02-28T04:40:22.979Z,103355.44
2023-02-28T04:42:25.998Z,103353.69
2023-02-28T04:44:27.857Z,103351.94
2023-02-28T04:46:29.496Z,103364.41
2023-02-28T04:48:33.163Z,103368.03
2023-02-28T04:50:34.817Z,103368.94
2023-02-28T04:52:36.394Z,103368.06
2023-02-28T04:54:38.179Z,103368.13
2023-02-28T04:56:40.448Z,103369.06
2023-02-28T04:58:43.501Z,103362.88
2023-02-28T05:00:45.144Z,103362.91
2023-02-28T05:02:46.782Z,103359.38
2023-02-28T05:04:48.603Z,103360.34
2023-02-28T05:06:50.179Z,103364.78
2023-02-28T05:08:51.960Z,103363.09
2023-02-28T05:10:53.575Z,103370.25
2023-02-28T05:12:55.881Z,103360.50
2023-02-28T05:14:58.977Z,103361.47
2023-02-28T05:17:00.816Z,103356.16
2023-02-28T05:19:02.721Z,103359.69
2023-02-28T05:21:04.535Z,103365.03
2023-02-28T05:23:06.387Z,103362.34
2023-02-28T05:25:11.715Z,103363.31
2023-02-28T05:27:13.524Z,103363.31
2023-02-28T05:29:15.123Z,103363.34
2023-02-28T05:31:18.374Z,103366.91
2023-02-28T05:33:20.040Z,103371.41
2023-02-28T05:35:21.637Z,103371.41
2023-02-28T05:37:23.432Z,103375.03
2023-02-28T05:39:25.022Z,103375.94
2023-02-28T05:41:26.593Z,103375.94
2023-02-28T05:43:28.161Z,103375.16
2023-02-28T05:45:30.050Z,103383.16
2023-02-28T05:47:33.115Z,103375.25
2023-02-28T05:49:34.649Z,103371.78
2023-02-28T05:51:36.444Z,103380.72
2023-02-28T05:53:38.350Z,103383.38
2023-02-28T05:55:39.990Z,103379.84
2023-02-28T05:57:41.543Z,103385.13
2023-02-28T05:59:43.083Z,103382.47
2023-02-28T06:01:46.360Z,103386.88
2023-02-28T06:03:49.786Z,103385.91
2023-02-28T06:05:51.320Z,103385.91
2023-02-28T06:07:52.850Z,103386.88
2023-02-28T06:09:54.477Z,103393.03
2023-02-28T06:11:58.256Z,103394.88
2023-02-28T06:14:01.508Z,103396.56
2023-02-28T06:16:03.108Z,103397.53
2023-02-28T06:18:04.817Z,103389.53
2023-02-28T06:20:10.256Z,103385.88
2023-02-28T06:22:12.163Z,103387.53
2023-02-28T06:24:13.988Z,103385.75
2023-02-28T06:26:15.605Z,103386.47
2023-02-28T06:28:17.329Z,103390.91
2023-02-28T06:30:19.265Z,103396.09
2023-02-28T06:32:21.158Z,103392.50
2023-02-28T06:34:23.228Z,103390.63
2023-02-28T06:36:26.159Z,103388.72
2023-02-28T06:38:28.161Z,103390.19
2023-02-28T06:40:29.713Z,103391.59
2023-02-28T06:42:31.248Z,103389.56
2023-02-28T06:44:32.814Z,103391.31
2023-02-28T06:46:34.416Z,103388.50
2023-02-28T06:48:36.445Z,103389.34
2023-02-28T06:50:38.232Z,103396.38
2023-02-28T06:52:41.245Z,103394.41
2023-02-28T06:54:42.830Z,103387.13
2023-02-28T06:56:44.370Z,103394.03
2023-02-28T06:58:48.110Z,103395.56
2023-02-28T07:00:52.277Z,103399.78
2023-02-28T07:02:53.846Z,103398.66
2023-02-28T07:04:55.765Z,103401.00
2023-02-28T07:06:57.428Z,103406.88
2023-02-28T07:09:00.740Z,103403.88
2023-02-28T07:11:05.682Z,103406.19
2023-02-28T07:13:08.552Z,103404.91
2023-02-28T07:15:11.857Z,103402.72
2023-02-28T07:17:13.506Z,103408.50
2023-02-28T07:19:15.132Z,103408.09
2023-02-28T07:21:17.336Z,103403.13
2023-02-28T07:23:19.958Z,103404.38
2023-02-28T07:25:23.339Z,103399.41
2023-02-28T07:27:28.092Z,103396.13
2023-02-28T07:29:29.932Z,103406.19
2023-02-28T07:31:31.961Z,103408.19
2023-02-28T07:33:34.832Z,103411.94
2023-02-28T07:35:36.469Z,103404.94
2023-02-28T07:37:38.184Z,103412.22
2023-02-28T07:39:40.026Z,103418.59
2023-02-28T07:41:43.310Z,103430.28
2023-02-28T07:43:45.006Z,103424.97
2023-02-28T07:45:46.624Z,103436.63
2023-02-28T07:47:48.473Z,103429.59
2023-02-28T07:49:49.972Z,103437.72
2023-02-28T07:51:51.499Z,103441.19
2023-02-28T07:53:53.381Z,103441.25
2023-02-28T07:55:57.097Z,103435.03
2023-02-28T07:58:00.375Z,103435.97
2023-02-28T08:00:02.187Z,103425.22
2023-02-28T08:02:04.036Z,103433.38
2023-02-28T08:04:05.613Z,103430.75
2023-02-28T08:06:09.858Z,103431.75
2023-02-28T08:08:11.455Z,103421.84
2023-02-28T08:10:13.137Z,103423.69
2023-02-28T08:12:14.773Z,103424.59
2023-02-28T08:14:17.728Z,103417.53
2023-02-28T08:16:19.556Z,103410.34
2023-02-28T08:18:21.465Z,103413.09
2023-02-28T08:20:23.418Z,103410.53
2023-02-28T08:22:25.563Z,103412.31
2023-02-28T08:24:27.433Z,103405.22
2023-02-28T08:26:29.586Z,103398.94
2023-02-28T08:28:31.601Z,103398.88
2023-02-28T08:30:34.690Z,103400.66
2023-02-28T08:32:36.584Z,103405.16
2023-02-28T08:34:40.284Z,103397.09
2023-02-28T08:36:42.439Z,103391.63
2023-02-28T08:38:44.517Z,103396.19
2023-02-28T08:40:46.359Z,103379.81
2023-02-28T08:42:48.888Z,103376.16
2023-02-28T08:44:50.669Z,103384.91
2023-02-28T08:46:54.793Z,103389.31
2023-02-28T08:48:57.731Z,103379.59
2023-02-28T08:51:07.252Z,103381.31
2023-02-28T08:53:09.717Z,103377.84
2023-02-28T08:55:11.374Z,103379.66
2023-02-28T08:57:13.004Z,103380.47
2023-02-28T08:59:14.657Z,103386.66
2023-02-28T09:01:18.235Z,103382.22
2023-02-28T09:03:22.640Z,103387.59
2023-02-28T09:05:25.521Z,103389.38
2023-02-28T09:07:26.995Z,103383.88
2023-02-28T09:09:29.036Z,103383.91
2023-02-28T09:11:31.015Z,103386.56
2023-02-28T09:13:33.374Z,103388.28
2023-02-28T09:15:35.181Z,103386.38
2023-02-28T09:17:36.826Z,103391.66
2023-02-28T09:19:39.825Z,103392.44
2023-02-28T09:21:41.634Z,103397.50
2023-02-28T09:23:44.378Z,103394.53
2023-02-28T09:25:47.619Z,103394.28
2023-02-28T09:27:49.546Z,103403.88
2023-02-28T09:29:51.584Z,103399.91
2023-02-28T09:31:55.637Z,103400.47
2023-02-28T09:33:59.029Z,103399.31
2023-02-28T09:36:04.801Z,103406.28
2023-02-28T09:38:06.817Z,103406.16
2023-02-28T09:40:11.166Z,103410.56
2023-02-28T09:42:22.482Z,103412.09
2023-02-28T09:44:31.237Z,103411.03
2023-02-28T09:46:37.856Z,103415.44
2023-02-28T09:48:45.459Z,103409.06
2023-02-28T09:50:51.075Z,103408.25
2023-02-28T09:52:56.257Z,103401.00
2023-02-28T09:55:21.322Z,103406.09
2023-02-28T09:57:37.892Z,103408.25
2023-02-28T09:59:49.831Z,103403.13
2023-02-28T10:01:59.376Z,103402.31
2023-02-28T10:04:09.776Z,103400.63
2023-02-28T10:06:18.414Z,103401.38
2023-02-28T10:08:26.137Z,103407.84
2023-02-28T10:10:34.264Z,103406.56
2023-02-28T10:12:42.031Z,103409.91
2023-02-28T10:14:48.611Z,103406.81
2023-02-28T10:16:53.327Z,103397.50
2023-02-28T10:18:58.554Z,103399.06
2023-02-28T10:21:00.326Z,103399.94
2023-02-28T10:23:10.064Z,103392.47
2023-02-28T10:25:20.615Z,103391.47
2023-02-28T10:27:24.204Z,103389.41
2023-02-28T10:29:25.898Z,103394.00
2023-02-28T10:31:27.736Z,103382.34
2023-02-28T10:33:32.798Z,103391.34
2023-02-28T10:35:34.660Z,103390.47
2023-02-28T10:37:38.752Z,103385.97
2023-02-28T10:39:43.051Z,103382.50
2023-02-28T10:41:46.619Z,103393.38
2023-02-28T10:43:48.293Z,103389.72
2023-02-28T10:45:57.812Z,103386.09
2023-02-28T10:48:01.914Z,103381.63
2023-02-28T10:50:04.347Z,103386.16
2023-02-28T10:52:10.144Z,103388.00
2023-02-28T10:54:21.632Z,103385.88
2023-02-28T10:56:24.964Z,103380.38
2023-02-28T10:58:30.547Z,103372.81
2023-02-28T11:00:35.634Z,103374.44
2023-02-28T11:02:38.397Z,103366.69
2023-02-28T11:04:40.067Z,103360.28
2023-02-28T11:06:41.673Z,103364.63
2023-02-28T11:08:49.572Z,103362.50
2023-02-28T11:10:57.162Z,103358.09
2023-02-28T11:13:01.012Z,103353.56
2023-02-28T11:15:19.594Z,103360.44
2023-02-28T11:17:23.600Z,103348.72
2023-02-28T11:19:27.920Z,103358.16
2023-02-28T11:21:33.227Z,103349.44
2023-02-28T11:23:38.319Z,103355.63
2023-02-28T11:25:40.400Z,103356.31
2023-02-28T11:27:47.064Z,103344.75
2023-02-28T11:29:48.980Z,103349.00
2023-02-28T11:32:17.971Z,103345.31
2023-02-28T11:34:25.758Z,103345.66
2023-02-28T11:36:30.903Z,103351.31
2023-02-28T11:38:36.005Z,103346.91
2023-02-28T11:40:44.599Z,103353.44
2023-02-28T11:42:56.157Z,103347.28
2023-02-28T11:45:10.835Z,103350.91
2023-02-28T11:47:20.416Z,103344.59
2023-02-28T11:49:33.433Z,103335.00
2023-02-28T11:51:36.609Z,103335.00
2023-02-28T11:53:56.504Z,103321.50
2023-02-28T11:56:07.272Z,103318.97
2023-02-28T11:58:40.090Z,103325.13
2023-02-28T12:00:58.561Z,103322.41
2023-02-28T12:03:13.391Z,103324.59
2023-02-28T12:05:30.428Z,103312.28
2023-02-28T12:07:42.186Z,103311.75
2023-02-28T12:09:54.602Z,103315.19
2023-02-28T12:12:01.228Z,103311.41
2023-02-28T12:14:24.302Z,103308.16
2023-02-28T12:16:50.642Z,103310.38
2023-02-28T12:19:07.785Z,103316.16
2023-02-28T12:21:19.632Z,103312.25
2023-02-28T12:23:45.265Z,103310.50
2023-02-28T12:26:09.548Z,103308.94
2023-02-28T12:28:15.695Z,103308.41
2023-02-28T12:30:22.414Z,103307.03
2023-02-28T12:32:28.579Z,103300.84
2023-02-28T12:34:36.400Z,103297.41
2023-02-28T12:36:40.201Z,103298.75
2023-02-28T12:38:46.588Z,103291.69
2023-02-28T12:40:52.635Z,103292.56
2023-02-28T12:42:59.779Z,103286.22
2023-02-28T12:45:06.651Z,103290.19
2023-02-28T12:47:15.293Z,103286.56
2023-02-28T12:49:22.688Z,103289.31
2023-02-28T12:51:28.023Z,103277.97
2023-02-28T12:53:45.044Z,103284.47
2023-02-28T12:55:54.509Z,103284.78
2023-02-28T12:58:02.934Z,103289.56
2023-02-28T13:00:12.087Z,103289.19
2023-02-28T13:02:43.756Z,103296.38
2023-02-28T13:04:58.939Z,103290.03
2023-02-28T13:07:32.665Z,103292.25
2023-02-28T13:09:34.679Z,103286.28
2023-02-28T13:11:41.660Z,103289.69
2023-02-28T13:13:46.273Z,103282.13
2023-02-28T13:16:03.756Z,103279.88
2023-02-28T13:18:05.649Z,103275.41
2023-02-28T13:20:17.285Z,103277.78
2023-02-28T13:22:21.638Z,103273.84
2023-02-28T13:24:49.375Z,103275.00
2023-02-28T13:27:27.413Z,103272.91
2023-02-28T13:29:31.307Z,103283.41
2023-02-28T13:31:32.877Z,103281.72
2023-02-28T13:33:35.542Z,103279.34
2023-02-28T13:35:44.371Z,103277.78
2023-02-28T13:37:49.392Z,103274.56
2023-02-28T13:39:54.367Z,103269.97
2023-02-28T13:41:56.058Z,103270.34
2023-02-28T13:44:02.970Z,103266.22
2023-02-28T13:46:14.293Z,103264.69
2023-02-28T13:48:19.853Z,103254.25
2023-02-28T13:50:31.456Z,103253.41
2023-02-28T13:52:36.362Z,103248.28
2023-02-28T13:54:54.230Z,103250.00
2023-02-28T13:57:12.791Z,103248.28
2023-02-28T13:59:27.814Z,103240.56
2023-02-28T14:01:43.633Z,103233.72
2023-02-28T14:04:03.418Z,103232.38
2023-02-28T14:06:19.417Z,103233.81
2023-02-28T14:08:23.390Z,103224.56
2023-02-28T14:10:29.618Z,103227.66
2023-02-28T14:13:02.208Z,103225.97
2023-02-28T14:15:05.154Z,103216.56
2023-02-28T14:17:13.455Z,103223.44
2023-02-28T14:19:26.790Z,103210.09
2023-02-28T14:21:32.070Z,103210.44
2023-02-28T14:23:47.789Z,103211.63
2023-02-28T14:26:01.332Z,103203.97
2023-02-28T14:28:19.965Z,103202.41
2023-02-28T14:30:58.500Z,103201.91
2023-02-28T14:33:12.305Z,103204.72
2023-02-28T14:35:28.805Z,103206.63
2023-02-28T14:37:38.322Z,103204.75
2023-02-28T14:39:42.501Z,103206.50
2023-02-28T14:41:47.623Z,103210.97
2023-02-28T14:43:53.490Z,103216.94
2023-02-28T14:45:57.213Z,103213.16
2023-02-28T14:48:00.333Z,103210.78
2023-02-28T14:50:04.195Z,103218.50
2023-02-28T14:52:16.644Z,103212.31
2023-02-28T14:54:23.664Z,103217.47
2023-02-28T14:56:29.246Z,103207.19
2023-02-28T14:58:32.910Z,103200.53
2023-02-28T15:00:37.990Z,103202.25
2023-02-28T15:02:40.779Z,103202.75
2023-02-28T15:04:42.602Z,103202.25
2023-02-28T15:06:44.526Z,103212.69
2023-02-28T15:08:49.213Z,103199.34
2023-02-28T15:10:57.284Z,103207.03
2023-02-28T15:13:01.150Z,103204.13
2023-02-28T15:15:03.495Z,103203.09
2023-02-28T15:17:10.391Z,103202.91
2023-02-28T15:19:20.034Z,103207.00
2023-02-28T15:21:26.193Z,103198.44
2023-02-28T15:23:27.993Z,103208.84
2023-02-28T15:25:29.635Z,103198.25
2023-02-28T15:27:34.052Z,103197.75
2023-02-28T15:29:45.158Z,103200.66
2023-02-28T15:31:57.442Z,103200.47
2023-02-28T15:34:06.160Z,103188.31
2023-02-28T15:36:15.009Z,103194.28
2023-02-28T15:38:22.564Z,103198.56
2023-02-28T15:40:27.934Z,103194.75
2023-02-28T15:42:30.443Z,103195.72
2023-02-28T15:44:37.650Z,103192.28
2023-02-28T15:46:40.988Z,103192.41
2023-02-28T15:48:46.534Z,103194.94
2023-02-28T15:50:52.534Z,103190.28
2023-02-28T15:52:54.259Z,103188.22
2023-02-28T15:54:55.989Z,103189.72
2023-02-28T15:57:05.210Z,103180.66
2023-02-28T15:59:14.660Z,103172.56
2023-02-28T16:01:25.102Z,103183.41
2023-02-28T16:03:29.010Z,103186.25
2023-02-28T16:05:31.885Z,103185.53
2023-02-28T16:07:36.172Z,103173.16
2023-02-28T16:09:37.678Z,103178.53
2023-02-28T16:11:43.141Z,103178.78
2023-02-28T16:13:44.746Z,103181.56
2023-02-28T16:15:46.928Z,103185.22
2023-02-28T16:17:49.838Z,103179.00
2023-02-28T16:19:51.664Z,103180.97
2023-02-28T16:21:53.286Z,103186.47
2023-02-28T16:23:56.306Z,103180.22
2023-02-28T16:25:58.009Z,103186.63
2023-02-28T16:27:59.674Z,103188.53
2023-02-28T16:30:02.224Z,103185.88
2023-02-28T16:32:06.557Z,103194.06
2023-02-28T16:34:08.183Z,103191.25
2023-02-28T16:36:14.314Z,103187.69
2023-02-28T16:38:16.255Z,103190.34
2023-02-28T16:40:22.365Z,103188.50
2023-02-28T16:42:28.146Z,103191.09
2023-02-28T16:44:33.180Z,103194.56
2023-02-28T16:46:36.657Z,103193.59
2023-02-28T16:48:38.289Z,103205.31
2023-02-28T16:50:40.304Z,103202.47
2023-02-28T16:52:41.931Z,103200.47
2023-02-28T16:54:43.666Z,103199.34
2023-02-28T16:56:50.278Z,103203.81
2023-02-28T16:58:52.418Z,103209.94
2023-02-28T17:00:54.060Z,103202.66
2023-02-28T17:02:56.762Z,103210.34
2023-02-28T17:04:58.492Z,103216.50
2023-02-28T17:07:00.090Z,103225.41
2023-02-28T17:09:01.697Z,103220.66
2023-02-28T17:11:03.352Z,103223.22
2023-02-28T17:13:14.390Z,103231.06
2023-02-28T17:15:18.831Z,103227.31
2023-02-28T17:17:22.764Z,103231.59
2023-02-28T17:19:24.323Z,103234.00
2023-02-28T17:21:25.896Z,103231.13
2023-02-28T17:23:27.797Z,103227.38
2023-02-28T17:25:29.540Z,103232.63
2023-02-28T17:27:31.045Z,103225.31
2023-02-28T17:29:34.269Z,103222.53
2023-02-28T17:31:36.140Z,103232.47
2023-02-28T17:33:37.783Z,103238.00
2023-02-28T17:35:39.543Z,103234.34
2023-02-28T17:37:41.517Z,103240.53
2023-02-28T17:39:43.144Z,103237.88
2023-02-28T17:41:44.693Z,103239.69
2023-02-28T17:43:46.341Z,103250.31
2023-02-28T17:45:49.633Z,103252.09
2023-02-28T17:47:51.432Z,103251.88
2023-02-28T17:49:53.326Z,103267.91
2023-02-28T17:51:54.902Z,103264.00
2023-02-28T17:53:56.651Z,103261.91
2023-02-28T17:55:58.212Z,103280.53
2023-02-28T17:58:00.618Z,103265.03
2023-02-28T18:00:04.327Z,103259.41
2023-02-28T18:02:07.776Z,103258.19
2023-02-28T18:04:09.925Z,103256.09
2023-02-28T18:06:17.933Z,103266.44
2023-02-28T18:08:19.679Z,103250.81
2023-02-28T18:10:22.055Z,103256.72
2023-02-28T18:12:23.699Z,103265.31
2023-02-28T18:14:26.032Z,103255.00
2023-02-28T18:16:27.644Z,103254.50
2023-02-28T18:18:30.805Z,103256.84
2023-02-28T18:20:32.374Z,103250.09
2023-02-28T18:22:33.979Z,103249.69
2023-02-28T18:24:36.042Z,103250.19
2023-02-28T18:26:39.220Z,103250.78
2023-02-28T18:28:40.871Z,103260.38
2023-02-28T18:30:43.025Z,103261.84
2023-02-28T18:32:44.587Z,103250.75
2023-02-28T18:34:47.524Z,103252.22
2023-02-28T18:36:49.856Z,103248.38
2023-02-28T18:38:52.093Z,103240.84
2023-02-28T18:40:55.618Z,103244.00
2023-02-28T18:42:57.255Z,103242.84
2023-02-28T18:44:58.764Z,103239.66
2023-02-28T18:47:00.597Z,103236.56
2023-02-28T18:49:02.260Z,103240.59
2023-02-28T18:51:08.887Z,103236.63
2023-02-28T18:53:10.708Z,103239.81
2023-02-28T18:55:12.512Z,103242.06
2023-02-28T18:57:14.302Z,103243.41
2023-02-28T18:59:16.106Z,103233.91
2023-02-28T19:01:20.112Z,103230.72
2023-02-28T19:03:21.641Z,103238.19
2023-02-28T19:05:23.870Z,103236.91
2023-02-28T19:07:27.687Z,103242.63
2023-02-28T19:09:29.308Z,103237.66
2023-02-28T19:11:31.653Z,103234.56
2023-02-28T19:13:33.396Z,103236.84
2023-02-28T19:15:34.926Z,103226.53
2023-02-28T19:17:36.991Z,103223.38
2023-02-28T19:19:39.018Z,103227.41
2023-02-28T19:21:40.528Z,103226.13
2023-02-28T19:23:43.728Z,103231.09
2023-02-28T19:25:45.313Z,103225.25
2023-02-28T19:27:47.285Z,103225.63
2023-02-28T19:29:50.008Z,103226.91
2023-02-28T19:31:51.636Z,103230.78
2023-02-28T19:33:54.276Z,103235.66
2023-02-28T19:35:55.960Z,103241.34
2023-02-28T19:37:58.923Z,103241.66
2023-02-28T19:40:02.544Z,103241.88
2023-02-28T19:42:04.564Z,103231.41
2023-02-28T19:44:06.319Z,103230.69
2023-02-28T19:46:09.242Z,103233.56
2023-02-28T19:48:11.093Z,103228.38
2023-02-28T19:50:12.640Z,103226.88
2023-02-28T19:52:15.550Z,103228.91
2023-02-28T19:54:17.590Z,103232.78
2023-02-28T19:56:20.689Z,103230.44
2023-02-28T19:58:23.059Z,103227.97
2023-02-28T20:00:25.405Z,103229.00
2023-02-28T20:02:27.106Z,103240.00
2023-02-28T20:04:28.630Z,103244.72
2023-02-28T20:06:32.293Z,103238.59
2023-02-28T20:08:34.594Z,103237.81
2023-02-28T20:10:36.943Z,103230.91
2023-02-28T20:12:39.988Z,103224.00
2023-02-28T20:14:42.005Z,103222.41
2023-02-28T20:16:44.282Z,103222.72
2023-02-28T20:18:50.456Z,103222.06
2023-02-28T20:20:52.272Z,103217.75
2023-02-28T20:22:53.918Z,103222.34
2023-02-28T20:24:55.947Z,103219.00
2023-02-28T20:26:57.480Z,103226.34
2023-02-28T20:29:00.603Z,103230.09
2023-02-28T20:31:02.847Z,103233.09
2023-02-28T20:33:04.892Z,103236.94
2023-02-28T20:35:07.818Z,103234.63
2023-02-28T20:37:09.428Z,103240.34
2023-02-28T20:39:11.217Z,103236.13
2023-02-28T20:41:13.998Z,103244.50
2023-02-28T20:43:15.615Z,103249.31
2023-02-28T20:45:19.146Z,103251.44
2023-02-28T20:47:21.011Z,103252.59
2023-02-28T20:49:22.614Z,103249.25
2023-02-28T20:51:24.609Z,103255.88
2023-02-28T20:53:27.643Z,103248.97
2023-02-28T20:55:29.225Z,103250.16
2023-02-28T20:57:30.975Z,103244.00
2023-02-28T20:59:32.585Z,103241.59
2023-02-28T21:01:35.780Z,103239.88
2023-02-28T21:03:37.812Z,103239.97
2023-02-28T21:05:39.650Z,103234.69
2023-02-28T21:07:41.203Z,103239.28
2023-02-28T21:09:42.832Z,103235.81
2023-02-28T21:11:44.451Z,103235.06
2023-02-28T21:13:47.460Z,103233.34
2023-02-28T21:15:49.331Z,103233.47
2023-02-28T21:17:52.536Z,103245.34
2023-02-28T21:19:54.143Z,103243.63
2023-02-28T21:21:55.980Z,103244.78
2023-02-28T21:23:57.670Z,103250.25
2023-02-28T21:26:02.711Z,103252.16
2023-02-28T21:28:04.341Z,103255.13
2023-02-28T21:30:07.389Z,103258.88
2023-02-28T21:32:08.925Z,103259.94
2023-02-28T21:34:13.335Z,103258.28
2023-02-28T21:36:18.265Z,103263.84
2023-02-28T21:38:19.830Z,103262.25
2023-02-28T21:40:21.469Z,103263.31
2023-02-28T21:42:23.137Z,103258.09
2023-02-28T21:44:24.696Z,103259.16
2023-02-28T21:46:29.630Z,103261.09
2023-02-28T21:48:32.193Z,103258.56
2023-02-28T21:50:35.305Z,103262.31
2023-02-28T21:52:36.933Z,103254.44
2023-02-28T21:54:38.448Z,103252.81
2023-02-28T21:56:40.830Z,103248.59
2023-02-28T21:58:42.764Z,103252.31
2023-02-28T22:00:44.742Z,103257.00
2023-02-28T22:02:46.622Z,103243.75
2023-02-28T22:04:48.309Z,103259.09
2023-02-28T22:06:53.209Z,103252.94
2023-02-28T22:08:56.848Z,103258.44
2023-02-28T22:11:02.520Z,103257.63
2023-02-28T22:13:04.444Z,103251.50
2023-02-28T22:15:07.534Z,103264.16
2023-02-28T22:17:09.484Z,103259.66
2023-02-28T22:19:11.373Z,103263.38
2023-02-28T22:21:14.845Z,103263.47
2023-02-28T22:23:17.771Z,103264.44
2023-02-28T22:25:19.479Z,103260.09
2023-02-28T22:27:21.711Z,103257.59
2023-02-28T22:29:23.318Z,103254.16
2023-02-28T22:31:27.814Z,103253.38
2023-02-28T22:33:29.454Z,103254.44
2023-02-28T22:35:31.037Z,103257.31
2023-02-28T22:37:32.761Z,103253.94
2023-02-28T22:39:35.840Z,103249.59
2023-02-28T22:41:37.974Z,103244.41
2023-02-28T22:43:40.240Z,103242.78
2023-02-28T22:45:41.838Z,103251.00
2023-02-28T22:47:43.366Z,103253.84
2023-02-28T22:49:45.124Z,103252.34
2023-02-28T22:51:46.777Z,103248.00
2023-02-28T22:53:50.174Z,103242.81
2023-02-28T22:55:56.087Z,103249.22
2023-02-28T22:57:57.622Z,103254.66
2023-02-28T22:59:59.219Z,103257.53
2023-02-28T23:02:01.020Z,103245.16
2023-02-28T23:04:02.894Z,103247.06
2023-02-28T23:06:12.625Z,103247.16
2023-02-28T23:08:14.287Z,103250.84
2023-02-28T23:10:18.756Z,103255.47
2023-02-28T23:12:21.687Z,103256.41
2023-02-28T23:14:23.593Z,103255.66
2023-02-28T23:16:31.306Z,103255.66
2023-02-28T23:18:33.552Z,103250.47
2023-02-28T23:20:35.159Z,103246.03
2023-02-28T23:22:36.716Z,103248.78
2023-02-28T23:24:38.638Z,103244.47
2023-02-28T23:26:43.034Z,103245.44
2023-02-28T23:28:46.086Z,103241.88
2023-02-28T23:30:47.685Z,103242.84
2023-02-28T23:32:49.297Z,103243.78
2023-02-28T23:34:50.945Z,103241.97
2023-02-28T23:36:53.847Z,103247.34
2023-02-28T23:38:55.411Z,103238.44
2023-02-28T23:40:57.226Z,103239.31
2023-02-28T23:42:59.353Z,103236.63
2023-02-28T23:45:02.850Z,103237.50